Urb Monte Brisas 5, Puerto Rico
Current Conditions -  °F | °C
As of 7:53 PM on Friday 24 Oct 2014 (Local Time) from TJNR Reporting Station
Few Clouds Few Clouds  
Wind Chill: 82°   Ceiling: Unl
Heat Index: 89°   Visibility: 10mi
Dew Point: 76°   Wind: 5mph
Humidity: 82%   Direction: 150°SSE
Pressure: 29.92"   Gusts: NA
Location:  18.3304°N, 65.6573°W
Report Text: TJNR 242353Z AUTO 15004KT 10SM FEW020 28/24 A2992 RMK AO2 SLP131 T02780244 10322 20278 53008 $
Loading
Personal Weather Stations






























Interactive Weather Map
Tropical Storm Tracking
New forecast layout! Learn more

10-Day Weather Forecast

Advertisements
Track Severe Weather on mobile